Portada
METAR-TAF:

METAR-TAF

Aeroports :

Belgrad, Sèrbia

latitud: 44-49N, longitud: 020-17E, altitud: 96 m

Observació

L'informe es va fer fa 17 minuts, a les 04:30 UTC
Vent 2 kt del Nord-Oest
Temperatura 14°C
Humitat 82%
Pressió 1020 hPa
Visibilitat 10 km o més
sense núvols per sota de 1500 mi sense presència de cumulonimbus.

METAR: LYBE 280430Z 32002KT CAVOK 14/11 Q1020 NOSIG

Hora: 06:47 (04:47 UTC)

Pronòstic

L'informe es va fer fa 5 hores i 47 minuts, a les 23:00 UTC
Pronòstic vàlid del 28 a les 00 UTC al 28 a les 24 UTC
Vent 5 kt del Est/Nord-Est
Visibilitat 10 km o més
sense núvols per sota de 1500 mi sense presència de cumulonimbus.
Temporalment
l' 28 a les 10 UTC al 28 a les 15 UTC
Vent 12 kt del Est/Sud-Est

TAF: LYBE 272300Z 2800/2824 06005KT CAVOK TX28/2813Z TN14/2804Z TEMPO 2810/2815 12012KT

Observacions i pronòstics meteorològics de més de 4000 aeroports (METAR i TAF).

Les estacions disponibles són els punts grocs i vermells al mapa.

Posi el ratolí al punt desitjat per veure el nom de l'estació.

Feu clic per veure les observacions i els pronòstics meteorològics.

Per canviar el mapa: feu clic els botons verds amb una creu de color negre per apropar; al botó verd amb un guió per allunyar la imatge; o en les fletxes verdes per a mapes adjacents.


METAR-TAF: